Time;durP1;ratioP1;P1;durP2;ratioP2;P2;SDS_P1;SDS_P2;PMS_P1;PMS_P2;Temp;Humidity;BMP_temperature;BMP_pressure;BME280_temperature;BME280_humidity;BME280_pressure;Samples;Min_cycle;Max_cycle;Signal;HPM_P1;HPM_P2
2024/02/02 00:00:41;;;;;;;42.97;24.48;;;;;;;;;;4944952;29;20023;-92
2024/02/02 00:03:07;;;;;;;39.78;24.65;;;;;;;;;;4944741;29;20374;-92
2024/02/02 00:05:33;;;;;;;39.03;22.88;;;;;;;;;;4961349;29;20326;-93
2024/02/02 00:07:59;;;;;;;40.85;23.20;;;;;;;;;;4946290;29;20395;-93
2024/02/02 00:10:25;;;;;;;33.83;21.30;;;;;;;;;;4942774;29;20048;-92
2024/02/02 00:12:52;;;;;;;31.38;20.25;;;;;;;;;;4925644;29;20434;-92
2024/02/02 00:15:19;;;;;;;37.03;22.02;;;;;;;;;;4925757;29;20063;-93
2024/02/02 00:17:45;;;;;;;37.08;20.65;;;;;;;;;;4942208;29;20034;-92
2024/02/02 00:20:11;;;;;;;27.85;19.23;;;;;;;;;;4942400;29;20039;-92
2024/02/02 00:22:37;;;;;;;27.33;18.50;;;;;;;;;;4925239;29;20059;-92
2024/02/02 00:25:03;;;;;;;26.63;17.25;;;;;;;;;;4941824;29;20052;-90
2024/02/02 00:27:29;;;;;;;30.10;18.10;;;;;;;;;;4935584;29;20042;-91
2024/02/02 00:29:55;;;;;;;26.98;17.88;;;;;;;;;;4944493;29;20027;-91
2024/02/02 00:35:25;;;;;;;24.38;16.75;;;;;;;;;;4961451;28;20053;-91
2024/02/02 00:37:51;;;;;;;24.40;16.08;;;;;;;;;;4930535;29;20027;-92
2024/02/02 00:40:17;;;;;;;27.38;17.17;;;;;;;;;;4925108;29;20036;-92
2024/02/02 00:42:43;;;;;;;28.33;17.98;;;;;;;;;;4950386;29;20130;-93
2024/02/02 00:45:09;;;;;;;27.20;17.60;;;;;;;;;;4944161;28;20054;-92
2024/02/02 00:47:35;;;;;;;25.10;16.42;;;;;;;;;;4943735;29;20034;-92
2024/02/02 00:50:04;;;;;;;21.73;16.42;;;;;;;;;;4961158;29;20020;-91
2024/02/02 00:52:30;;;;;;;23.73;15.65;;;;;;;;;;4954031;29;20418;-93
2024/02/02 00:54:56;;;;;;;23.67;14.98;;;;;;;;;;4925118;29;20032;-92
2024/02/02 00:57:22;;;;;;;25.35;17.30;;;;;;;;;;4941834;29;20334;-92
2024/02/02 00:59:50;;;;;;;23.45;14.90;;;;;;;;;;4941410;29;20425;-92
2024/02/02 01:02:16;;;;;;;23.17;15.40;;;;;;;;;;4941706;29;20327;-92
2024/02/02 01:04:42;;;;;;;23.73;16.23;;;;;;;;;;4924854;29;20023;-93
2024/02/02 01:07:08;;;;;;;24.15;15.60;;;;;;;;;;4941348;29;20035;-92
2024/02/02 01:09:35;;;;;;;23.65;15.45;;;;;;;;;;4924656;29;20020;-91
2024/02/02 01:12:04;;;;;;;23.90;15.18;;;;;;;;;;4941339;29;20035;-91
2024/02/02 01:14:30;;;;;;;27.45;15.00;;;;;;;;;;4950071;29;20031;-90
2024/02/02 01:20:13;;;;;;;21.13;14.60;;;;;;;;;;4960916;29;20128;-92
2024/02/02 01:22:42;;;;;;;22.52;14.77;;;;;;;;;;4960349;29;20422;-92
2024/02/02 01:25:15;;;;;;;21.45;13.82;;;;;;;;;;4945956;29;20118;-91
2024/02/02 01:27:42;;;;;;;20.73;13.25;;;;;;;;;;4924302;29;20031;-91
2024/02/02 01:30:12;;;;;;;20.92;13.32;;;;;;;;;;4924616;29;20024;-92
2024/02/02 01:35:26;;;;;;;20.73;13.80;;;;;;;;;;4956204;29;20074;-93
2024/02/02 01:37:52;;;;;;;16.50;11.20;;;;;;;;;;4960727;28;20106;-92
2024/02/02 01:43:08;;;;;;;16.58;11.55;;;;;;;;;;5021402;23;20331;-92
2024/02/02 01:48:19;;;;;;;15.23;9.80;;;;;;;;;;5019128;23;20061;-92
2024/02/02 01:56:18;;;;;;;13.57;9.30;;;;;;;;;;5020148;23;20381;-93
2024/02/02 01:58:45;;;;;;;16.10;9.82;;;;;;;;;;4961935;28;20142;-91
2024/02/02 02:09:39;;;;;;;12.27;8.23;;;;;;;;;;5030372;23;20108;-91
2024/02/02 02:23:18;;;;;;;11.70;8.15;;;;;;;;;;4969565;28;20102;-91
2024/02/02 02:25:45;;;;;;;11.77;8.13;;;;;;;;;;4942702;29;20443;-93
2024/02/02 02:31:03;;;;;;;16.13;8.43;;;;;;;;;;5018101;23;20456;-93
2024/02/02 02:33:29;;;;;;;13.10;8.32;;;;;;;;;;4977933;28;20022;-90
2024/02/02 02:35:56;;;;;;;10.43;7.32;;;;;;;;;;4978585;28;20027;-91
2024/02/02 03:03:37;;;;;;;11.00;7.07;;;;;;;;;;5038892;23;20081;-90
2024/02/02 03:06:04;;;;;;;11.65;7.72;;;;;;;;;;4963260;29;20027;-90
2024/02/02 05:41:12;;;;;;;24.27;14.45;;;;;;;;;;4983172;23;20059;-91
2024/02/02 08:22:54;;;;;;;15.80;7.65;;;;;;;;;;5029371;23;20044;-85
2024/02/02 08:30:53;;;;;;;14.38;7.18;;;;;;;;;;4967475;23;20067;-88
2024/02/02 08:41:38;;;;;;;18.40;5.90;;;;;;;;;;4980850;28;20190;-91
2024/02/02 08:49:56;;;;;;;16.77;5.57;;;;;;;;;;5000058;23;20342;-82
2024/02/02 08:52:32;;;;;;;48.90;13.32;;;;;;;;;;4943223;29;20030;-82
2024/02/02 08:55:01;;;;;;;45.95;13.20;;;;;;;;;;4944744;28;20027;-82
2024/02/02 08:57:30;;;;;;;27.30;11.02;;;;;;;;;;4979523;28;20295;-80
2024/02/02 09:00:04;;;;;;;27.88;10.45;;;;;;;;;;4953617;28;20023;-80
2024/02/02 09:02:33;;;;;;;23.73;10.23;;;;;;;;;;4968341;28;20026;-79
2024/02/02 09:05:08;;;;;;;17.70;8.07;;;;;;;;;;4977413;28;20027;-80
2024/02/02 09:07:34;;;;;;;20.75;8.07;;;;;;;;;;4964714;28;20143;-81
2024/02/02 09:10:00;;;;;;;21.20;7.85;;;;;;;;;;4979238;28;20019;-80
2024/02/02 09:12:33;;;;;;;16.25;6.55;;;;;;;;;;4962272;28;20045;-81
2024/02/02 09:14:59;;;;;;;15.45;5.88;;;;;;;;;;4979114;28;20030;-81
2024/02/02 09:17:26;;;;;;;14.50;5.13;;;;;;;;;;4957866;28;20038;-86
2024/02/02 09:19:55;;;;;;;17.77;5.03;;;;;;;;;;4943196;28;20054;-84
2024/02/02 09:22:22;;;;;;;12.75;5.38;;;;;;;;;;4959706;28;20452;-85
2024/02/02 09:24:49;;;;;;;15.10;5.50;;;;;;;;;;4959807;28;20074;-86
2024/02/02 09:27:15;;;;;;;14.15;4.93;;;;;;;;;;4959840;29;20422;-86
2024/02/02 09:29:45;;;;;;;17.52;5.75;;;;;;;;;;4960638;29;20317;-92
2024/02/02 09:32:12;;;;;;;19.45;6.03;;;;;;;;;;4942756;29;20106;-86
2024/02/02 09:34:38;;;;;;;10.25;4.13;;;;;;;;;;4959228;28;20039;-89
2024/02/02 09:37:08;;;;;;;15.63;5.30;;;;;;;;;;4959460;29;20026;-94
2024/02/02 09:39:51;;;;;;;12.25;4.43;;;;;;;;;;4942963;29;20165;-92
2024/02/02 09:42:37;;;;;;;13.27;4.18;;;;;;;;;;4942218;29;20034;-94
2024/02/02 09:45:19;;;;;;;16.98;4.13;;;;;;;;;;4956208;28;20031;-89
2024/02/02 09:48:00;;;;;;;10.63;3.92;;;;;;;;;;4943663;28;20118;-94
2024/02/02 09:50:49;;;;;;;9.98;4.53;;;;;;;;;;4963332;28;20087;-96
2024/02/02 09:53:32;;;;;;;13.35;4.47;;;;;;;;;;4947846;29;20031;-91
2024/02/02 09:56:26;;;;;;;10.50;3.55;;;;;;;;;;4960449;29;20035;-95
2024/02/02 09:58:55;;;;;;;12.77;4.20;;;;;;;;;;4934193;29;20031;-95
2024/02/02 10:01:32;;;;;;;11.05;3.83;;;;;;;;;;4923197;29;20413;-94
2024/02/02 10:04:21;;;;;;;12.63;3.63;;;;;;;;;;4931055;29;20031;-94
2024/02/02 10:06:56;;;;;;;10.35;3.95;;;;;;;;;;4879133;29;20048;-94
2024/02/02 10:09:41;;;;;;;10.52;3.78;;;;;;;;;;4866512;29;20049;-95
2024/02/02 10:12:13;;;;;;;13.18;4.68;;;;;;;;;;4866523;29;20045;-95
2024/02/02 10:14:58;;;;;;;11.45;5.20;;;;;;;;;;4866278;29;20317;-94
2024/02/02 10:17:42;;;;;;;11.05;4.20;;;;;;;;;;4866486;29;20053;-95
2024/02/02 10:20:22;;;;;;;11.20;4.35;;;;;;;;;;4866798;29;20032;-95
2024/02/02 10:22:48;;;;;;;13.63;4.95;;;;;;;;;;4863285;29;20029;-95
2024/02/02 10:25:32;;;;;;;11.50;4.60;;;;;;;;;;4867102;29;20044;-95
2024/02/02 10:28:01;;;;;;;10.32;4.13;;;;;;;;;;4871182;29;20085;-91
2024/02/02 10:30:37;;;;;;;13.13;5.18;;;;;;;;;;4887046;29;20116;-92
2024/02/02 10:33:26;;;;;;;13.13;4.40;;;;;;;;;;4871352;29;20309;-92
2024/02/02 10:36:04;;;;;;;10.88;4.28;;;;;;;;;;4834111;29;20048;-89
2024/02/02 10:38:31;;;;;;;10.77;4.20;;;;;;;;;;4839923;29;20045;-90
2024/02/02 10:41:09;;;;;;;10.80;4.25;;;;;;;;;;4849493;29;20050;-92
2024/02/02 10:43:38;;;;;;;14.00;5.05;;;;;;;;;;4868764;29;20040;-87
2024/02/02 10:46:07;;;;;;;10.48;4.05;;;;;;;;;;4918582;29;20040;-90
2024/02/02 10:48:33;;;;;;;13.27;5.78;;;;;;;;;;4923804;29;20083;-94
2024/02/02 10:51:25;;;;;;;12.13;4.25;;;;;;;;;;4924442;29;20028;-91
2024/02/02 10:53:58;;;;;;;12.43;4.78;;;;;;;;;;4921193;29;20040;-92
2024/02/02 10:56:48;;;;;;;12.63;5.07;;;;;;;;;;4924335;29;20032;-90
2024/02/02 10:59:32;;;;;;;11.20;4.13;;;;;;;;;;4908758;28;20485;-91
2024/02/02 11:02:02;;;;;;;17.38;5.97;;;;;;;;;;4908307;29;20449;-89
2024/02/02 11:04:35;;;;;;;11.95;4.32;;;;;;;;;;4923884;29;20056;-90
2024/02/02 11:07:07;;;;;;;20.67;5.20;;;;;;;;;;4923349;29;20032;-90
2024/02/02 11:09:53;;;;;;;13.23;5.25;;;;;;;;;;4903618;29;20021;-92
2024/02/02 11:12:25;;;;;;;12.15;4.72;;;;;;;;;;4933499;29;20031;-91
2024/02/02 11:14:56;;;;;;;10.60;4.57;;;;;;;;;;4946223;29;20023;-91
2024/02/02 11:17:33;;;;;;;13.10;3.72;;;;;;;;;;4962902;28;20032;-90
2024/02/02 11:20:09;;;;;;;11.88;3.97;;;;;;;;;;4963447;28;20039;-93
2024/02/02 11:22:45;;;;;;;9.48;3.83;;;;;;;;;;4945895;29;20031;-92
2024/02/02 11:25:17;;;;;;;13.93;4.32;;;;;;;;;;4962929;29;20028;-89
2024/02/02 11:27:48;;;;;;;11.02;3.40;;;;;;;;;;4962563;28;20020;-92
2024/02/02 11:30:34;;;;;;;13.85;4.68;;;;;;;;;;4946066;29;20031;-92
2024/02/02 11:33:09;;;;;;;11.57;4.32;;;;;;;;;;4945663;29;20041;-89
2024/02/02 11:35:39;;;;;;;13.93;4.47;;;;;;;;;;4968852;28;20042;-89
2024/02/02 11:38:23;;;;;;;11.13;4.50;;;;;;;;;;4951281;29;20035;-88
2024/02/02 11:40:50;;;;;;;13.00;5.13;;;;;;;;;;4967749;28;20023;-91
2024/02/02 11:43:16;;;;;;;27.55;9.52;;;;;;;;;;4947819;29;20046;-89
2024/02/02 11:45:43;;;;;;;14.40;4.07;;;;;;;;;;4945386;29;20023;-89
2024/02/02 11:48:17;;;;;;;11.75;4.22;;;;;;;;;;4945224;29;20054;-89
2024/02/02 11:50:44;;;;;;;12.45;4.07;;;;;;;;;;4945420;29;20098;-90
2024/02/02 11:53:10;;;;;;;14.00;4.70;;;;;;;;;;4961858;28;20035;-88
2024/02/02 11:55:40;;;;;;;17.48;4.95;;;;;;;;;;4945070;29;20027;-89
2024/02/02 11:58:07;;;;;;;15.05;5.97;;;;;;;;;;4944951;29;20031;-89
2024/02/02 12:00:43;;;;;;;15.07;7.30;;;;;;;;;;4945088;29;20038;-89
2024/02/02 12:03:09;;;;;;;12.80;5.03;;;;;;;;;;4961823;28;20039;-88
2024/02/02 12:05:46;;;;;;;13.98;4.40;;;;;;;;;;4944835;29;20414;-88
2024/02/02 12:08:17;;;;;;;13.45;4.35;;;;;;;;;;4944957;29;20039;-88
2024/02/02 12:10:44;;;;;;;10.07;5.43;;;;;;;;;;4961831;28;20023;-87
2024/02/02 12:13:14;;;;;;;14.07;4.82;;;;;;;;;;4944768;29;20038;-88
2024/02/02 12:15:40;;;;;;;13.13;5.35;;;;;;;;;;4961523;29;20406;-88
2024/02/02 12:18:18;;;;;;;16.77;5.38;;;;;;;;;;4961728;28;20038;-88
2024/02/02 12:20:45;;;;;;;10.85;3.88;;;;;;;;;;4961433;29;20035;-88
2024/02/02 12:23:11;;;;;;;28.13;9.48;;;;;;;;;;4960717;28;20032;-88
2024/02/02 12:25:37;;;;;;;19.35;6.00;;;;;;;;;;4944658;29;20114;-88
2024/02/02 12:28:04;;;;;;;18.38;6.30;;;;;;;;;;4944559;29;20035;-88
2024/02/02 12:30:30;;;;;;;25.75;9.45;;;;;;;;;;4961225;29;20028;-88
2024/02/02 12:32:57;;;;;;;89.85;31.92;;;;;;;;;;4961230;28;20074;-88
2024/02/02 12:35:23;;;;;;;88.85;30.70;;;;;;;;;;4961199;29;20441;-87
2024/02/02 12:37:50;;;;;;;95.47;29.75;;;;;;;;;;4961318;29;20039;-87
2024/02/02 12:40:19;;;;;;;128.27;41.30;;;;;;;;;;4961314;29;20020;-87
2024/02/02 12:42:45;;;;;;;78.53;27.30;;;;;;;;;;4961218;28;20382;-87
2024/02/02 12:45:14;;;;;;;95.15;33.25;;;;;;;;;;4944185;29;20123;-87
2024/02/02 12:47:40;;;;;;;69.97;25.17;;;;;;;;;;4943895;28;20027;-88
2024/02/02 12:50:14;;;;;;;23.73;8.77;;;;;;;;;;4961233;28;20023;-88
2024/02/02 12:52:44;;;;;;;82.22;29.63;;;;;;;;;;4961045;28;20031;-87
2024/02/02 12:55:10;;;;;;;94.40;33.40;;;;;;;;;;4961021;28;20027;-87
2024/02/02 12:57:36;;;;;;;51.22;19.92;;;;;;;;;;4944024;29;20106;-87
2024/02/02 13:00:06;;;;;;;59.40;19.60;;;;;;;;;;4944114;29;20031;-88
2024/02/02 13:02:32;;;;;;;63.17;22.63;;;;;;;;;;4960898;28;20059;-87
2024/02/02 13:05:00;;;;;;;42.75;14.45;;;;;;;;;;4943780;29;20406;-87
2024/02/02 13:07:27;;;;;;;12.80;4.80;;;;;;;;;;4943828;29;20425;-88
2024/02/02 13:09:55;;;;;;;33.13;9.95;;;;;;;;;;4960858;28;20019;-92
2024/02/02 13:12:39;;;;;;;58.53;19.15;;;;;;;;;;4943686;29;20027;-89
2024/02/02 13:15:12;;;;;;;75.22;26.00;;;;;;;;;;4943873;29;20059;-88
2024/02/02 13:17:39;;;;;;;38.33;12.68;;;;;;;;;;4944006;29;20125;-89
2024/02/02 13:20:28;;;;;;;70.93;24.13;;;;;;;;;;4960647;28;20035;-92
2024/02/02 13:22:54;;;;;;;375.00;27.02;;;;;;;;;;4943119;29;20401;-89
2024/02/02 13:25:24;;;;;;;18.08;7.07;;;;;;;;;;4961060;29;20362;-89
2024/02/02 13:27:52;;;;;;;15.73;4.28;;;;;;;;;;4943215;28;20031;-89
2024/02/02 13:30:22;;;;;;;10.43;4.00;;;;;;;;;;4943226;29;20038;-89
2024/02/02 13:32:51;;;;;;;11.68;5.20;;;;;;;;;;4945572;28;20147;-89
2024/02/02 13:35:49;;;;;;;14.30;4.38;;;;;;;;;;4962161;28;20417;-90
2024/02/02 13:38:16;;;;;;;11.07;4.63;;;;;;;;;;4962617;28;20046;-88
2024/02/02 13:40:44;;;;;;;19.30;6.65;;;;;;;;;;4979029;28;20034;-89
2024/02/02 13:43:14;;;;;;;42.72;11.85;;;;;;;;;;4962264;28;20321;-88
2024/02/02 13:45:41;;;;;;;14.88;4.90;;;;;;;;;;4979308;28;20089;-87
2024/02/02 13:48:12;;;;;;;37.50;10.80;;;;;;;;;;4979159;28;20049;-88
2024/02/02 13:50:59;;;;;;;36.10;10.55;;;;;;;;;;4961751;28;20031;-89
2024/02/02 13:53:28;;;;;;;29.55;8.90;;;;;;;;;;4943337;29;20039;-90
2024/02/02 13:55:56;;;;;;;58.47;18.55;;;;;;;;;;4960207;29;20031;-90
2024/02/02 13:58:22;;;;;;;52.92;17.50;;;;;;;;;;4960017;29;20034;-91
2024/02/02 14:00:48;;;;;;;45.28;14.52;;;;;;;;;;4957262;29;20039;-89
2024/02/02 14:03:25;;;;;;;61.85;21.13;;;;;;;;;;4942113;29;20032;-90
2024/02/02 14:05:51;;;;;;;65.75;22.90;;;;;;;;;;4960096;29;20023;-90
2024/02/02 14:08:19;;;;;;;52.15;19.45;;;;;;;;;;4959673;28;20039;-88
2024/02/02 14:10:45;;;;;;;47.17;16.90;;;;;;;;;;4959793;28;20111;-90
2024/02/02 14:13:16;;;;;;;18.02;5.90;;;;;;;;;;4943096;29;20493;-87
2024/02/02 14:15:44;;;;;;;31.00;9.95;;;;;;;;;;4927015;29;20062;-87
2024/02/02 14:18:12;;;;;;;14.95;4.63;;;;;;;;;;4958698;28;20023;-86
2024/02/02 14:20:38;;;;;;;17.27;5.55;;;;;;;;;;4959811;29;20042;-87
2024/02/02 14:23:11;;;;;;;20.10;5.60;;;;;;;;;;4942329;29;20031;-87
2024/02/02 14:25:37;;;;;;;15.80;6.05;;;;;;;;;;4941994;29;20063;-88
2024/02/02 14:28:15;;;;;;;18.77;8.10;;;;;;;;;;4959765;29;20023;-87
2024/02/02 14:30:41;;;;;;;35.55;14.32;;;;;;;;;;4942781;28;20042;-89
2024/02/02 14:33:08;;;;;;;26.13;10.23;;;;;;;;;;4942592;29;20067;-88
2024/02/02 15:32:19;;;;;;;17.30;7.13;;;;;;;;;;4978476;27;2867178;-90
2024/02/02 15:34:46;;;;;;;16.38;7.80;;;;;;;;;;5057367;28;20116;-89
2024/02/02 15:37:12;;;;;;;14.05;6.43;;;;;;;;;;5074699;28;20033;-89
2024/02/02 15:39:39;;;;;;;19.63;8.85;;;;;;;;;;5056982;28;20029;-91
2024/02/02 15:42:08;;;;;;;21.90;10.00;;;;;;;;;;5057137;28;20021;-89
2024/02/02 15:44:34;;;;;;;26.27;11.48;;;;;;;;;;5074830;28;20104;-89
2024/02/02 15:47:03;;;;;;;27.70;10.90;;;;;;;;;;5056890;28;20021;-89
2024/02/02 15:49:29;;;;;;;24.80;10.05;;;;;;;;;;5056615;28;20074;-91
2024/02/02 15:52:10;;;;;;;20.13;8.85;;;;;;;;;;5056395;28;20056;-89
2024/02/02 15:54:37;;;;;;;19.70;9.80;;;;;;;;;;5056835;28;20064;-89
2024/02/02 15:57:04;;;;;;;19.58;9.13;;;;;;;;;;5056960;28;20017;-89
2024/02/02 15:59:30;;;;;;;16.90;8.05;;;;;;;;;;5074203;28;20112;-90
2024/02/02 16:01:57;;;;;;;32.10;13.80;;;;;;;;;;5074271;28;20028;-89
2024/02/02 16:04:23;;;;;;;30.45;12.20;;;;;;;;;;5056457;28;20063;-90
2024/02/02 16:07:00;;;;;;;29.98;12.10;;;;;;;;;;5074002;28;20075;-90
2024/02/02 16:09:26;;;;;;;19.20;7.75;;;;;;;;;;5074283;28;20029;-90
2024/02/02 16:11:52;;;;;;;14.40;7.40;;;;;;;;;;5056513;28;20056;-90
2024/02/02 16:14:18;;;;;;;20.40;7.35;;;;;;;;;;5073954;28;20047;-90
2024/02/02 16:16:44;;;;;;;15.48;6.38;;;;;;;;;;5056388;28;20032;-90
2024/02/02 16:19:10;;;;;;;16.67;8.00;;;;;;;;;;5073791;28;20048;-91
2024/02/02 16:21:36;;;;;;;15.85;7.05;;;;;;;;;;5056184;28;20020;-90
2024/02/02 16:24:02;;;;;;;16.30;6.15;;;;;;;;;;5073869;28;20055;-90
2024/02/02 16:26:28;;;;;;;20.30;7.22;;;;;;;;;;5073672;28;20017;-90
2024/02/02 16:28:54;;;;;;;26.33;9.57;;;;;;;;;;5058642;28;20025;-89
2024/02/02 16:31:21;;;;;;;22.15;9.23;;;;;;;;;;5050883;28;20451;-89
2024/02/02 16:33:47;;;;;;;23.92;9.93;;;;;;;;;;5040636;28;20033;-90
2024/02/02 16:36:45;;;;;;;24.08;10.55;;;;;;;;;;5040527;28;20045;-91
2024/02/02 16:39:13;;;;;;;32.60;12.18;;;;;;;;;;5040393;28;20108;-90
2024/02/02 16:41:39;;;;;;;41.53;16.98;;;;;;;;;;5040375;28;20037;-90
2024/02/02 16:44:06;;;;;;;35.60;17.02;;;;;;;;;;5040363;28;20100;-90
2024/02/02 16:46:32;;;;;;;54.45;17.27;;;;;;;;;;5040606;28;20361;-91
2024/02/02 16:48:58;;;;;;;36.80;13.75;;;;;;;;;;5040194;28;20465;-91
2024/02/02 16:51:24;;;;;;;37.80;12.05;;;;;;;;;;5039720;28;20033;-91
2024/02/02 16:53:50;;;;;;;28.35;11.18;;;;;;;;;;5022548;28;20030;-90
2024/02/02 16:56:17;;;;;;;22.20;10.40;;;;;;;;;;5022360;28;20411;-91
2024/02/02 16:58:43;;;;;;;19.67;11.13;;;;;;;;;;5022595;28;20035;-91
2024/02/02 17:01:10;;;;;;;21.55;10.35;;;;;;;;;;5022372;28;20415;-91
2024/02/02 17:03:42;;;;;;;19.95;10.73;;;;;;;;;;5040121;28;20053;-91
2024/02/02 17:06:11;;;;;;;24.50;8.90;;;;;;;;;;5022488;28;20123;-90
2024/02/02 17:08:38;;;;;;;18.70;6.57;;;;;;;;;;5039810;28;20429;-91
2024/02/02 17:11:08;;;;;;;17.67;7.72;;;;;;;;;;5022263;28;20033;-90
2024/02/02 17:13:34;;;;;;;20.55;8.07;;;;;;;;;;5039561;28;20030;-90
2024/02/02 17:16:02;;;;;;;18.73;7.15;;;;;;;;;;5021666;28;20041;-90
2024/02/02 17:18:28;;;;;;;17.10;6.90;;;;;;;;;;5039737;28;20025;-91
2024/02/02 17:20:54;;;;;;;16.45;7.07;;;;;;;;;;5021720;28;20330;-90
2024/02/02 17:23:20;;;;;;;18.60;7.22;;;;;;;;;;5022173;28;20033;-90
2024/02/02 17:25:46;;;;;;;22.45;8.15;;;;;;;;;;5022048;28;20024;-91
2024/02/02 17:28:12;;;;;;;24.10;10.20;;;;;;;;;;5039379;28;20100;-91
2024/02/02 17:30:38;;;;;;;27.88;11.02;;;;;;;;;;5039363;28;20097;-90
2024/02/02 17:33:05;;;;;;;24.63;11.52;;;;;;;;;;5021861;28;20033;-90
2024/02/02 17:35:31;;;;;;;22.40;9.88;;;;;;;;;;5021439;28;20330;-91
2024/02/02 17:37:57;;;;;;;20.30;8.82;;;;;;;;;;5021880;28;20054;-92
2024/02/02 17:40:23;;;;;;;22.08;9.68;;;;;;;;;;5039349;28;20071;-90
2024/02/02 17:42:49;;;;;;;48.10;17.45;;;;;;;;;;5021426;28;20029;-90
2024/02/02 17:45:16;;;;;;;133.82;41.55;;;;;;;;;;5038321;28;20025;-90
2024/02/02 17:47:42;;;;;;;131.07;39.53;;;;;;;;;;5038979;28;20025;-92
2024/02/02 17:50:08;;;;;;;162.55;51.35;;;;;;;;;;5039182;28;20045;-90
2024/02/02 17:52:34;;;;;;;205.63;71.25;;;;;;;;;;5021366;28;20022;-90
2024/02/02 17:55:01;;;;;;;191.38;80.18;;;;;;;;;;5021464;28;20029;-90
2024/02/02 17:57:27;;;;;;;155.65;69.55;;;;;;;;;;5021551;28;20412;-90
2024/02/02 17:59:53;;;;;;;162.88;63.45;;;;;;;;;;5021310;28;20450;-91
2024/02/02 18:02:20;;;;;;;125.60;47.63;;;;;;;;;;5021151;28;20056;-92
2024/02/02 18:04:46;;;;;;;95.57;40.90;;;;;;;;;;5038471;28;20425;-91
2024/02/02 18:07:12;;;;;;;76.55;34.58;;;;;;;;;;5038794;28;20037;-91
2024/02/02 18:09:41;;;;;;;52.63;23.13;;;;;;;;;;5038551;28;20025;-91
2024/02/02 18:12:14;;;;;;;43.03;20.13;;;;;;;;;;5038541;28;20030;-91
2024/02/02 18:14:40;;;;;;;40.97;20.15;;;;;;;;;;5021019;28;20040;-91
2024/02/02 18:17:06;;;;;;;37.42;17.90;;;;;;;;;;5038497;28;20355;-91
2024/02/02 18:19:32;;;;;;;37.10;17.85;;;;;;;;;;5038631;28;20021;-91
2024/02/02 18:21:58;;;;;;;31.33;16.10;;;;;;;;;;5038587;28;20064;-96
2024/02/02 18:24:24;;;;;;;42.25;19.58;;;;;;;;;;5038433;28;20021;-91
2024/02/02 18:26:51;;;;;;;48.42;21.63;;;;;;;;;;5038226;28;20410;-92
2024/02/02 18:29:17;;;;;;;61.90;28.20;;;;;;;;;;5021331;28;20116;-90
2024/02/02 18:31:50;;;;;;;65.15;32.83;;;;;;;;;;5038709;28;20076;-94
2024/02/02 18:34:16;;;;;;;52.90;25.27;;;;;;;;;;5038993;28;20438;-89
2024/02/02 18:36:42;;;;;;;73.10;33.35;;;;;;;;;;5026053;28;20029;-89
2024/02/02 18:39:10;;;;;;;167.73;65.97;;;;;;;;;;5037191;28;20025;-90
2024/02/02 18:41:37;;;;;;;118.25;48.22;;;;;;;;;;5024483;28;20021;-90
2024/02/02 18:44:03;;;;;;;140.07;54.97;;;;;;;;;;5024335;28;20022;-90
2024/02/02 18:46:29;;;;;;;149.30;61.50;;;;;;;;;;5038384;28;20025;-90
2024/02/02 18:48:55;;;;;;;486.23;210.15;;;;;;;;;;5037127;28;20022;-89
2024/02/02 18:51:40;;;;;;;516.58;242.63;;;;;;;;;;5019987;28;20061;-89
2024/02/02 18:54:06;;;;;;;351.20;170.43;;;;;;;;;;5034120;28;20033;-89
2024/02/02 18:56:32;;;;;;;175.07;82.55;;;;;;;;;;5038325;28;20034;-90
2024/02/02 18:58:58;;;;;;;165.38;69.32;;;;;;;;;;5035532;28;20034;-89
2024/02/02 19:01:25;;;;;;;137.68;60.40;;;;;;;;;;5037970;28;20026;-89
2024/02/02 19:03:51;;;;;;;103.55;46.60;;;;;;;;;;5037052;28;20061;-90
2024/02/02 19:06:18;;;;;;;92.68;41.20;;;;;;;;;;5038261;28;20330;-89
2024/02/02 19:08:44;;;;;;;77.55;35.85;;;;;;;;;;5022127;28;20322;-89
2024/02/02 19:11:17;;;;;;;91.68;44.08;;;;;;;;;;5038336;28;20029;-88
2024/02/02 19:13:43;;;;;;;93.55;39.25;;;;;;;;;;5020623;28;20033;-90
2024/02/02 19:16:16;;;;;;;73.03;33.30;;;;;;;;;;5020488;28;20025;-89
2024/02/02 19:18:42;;;;;;;63.67;28.10;;;;;;;;;;5019353;28;20099;-89
2024/02/02 19:21:08;;;;;;;61.78;28.88;;;;;;;;;;5053504;28;20291;-89
2024/02/02 19:23:34;;;;;;;53.55;25.00;;;;;;;;;;5057713;28;20029;-89
2024/02/02 19:26:04;;;;;;;48.28;20.75;;;;;;;;;;5040230;28;20119;-89
2024/02/02 19:28:33;;;;;;;43.13;21.70;;;;;;;;;;5033277;28;20453;-89
2024/02/02 19:31:01;;;;;;;42.13;21.20;;;;;;;;;;5033486;28;20107;-88
2024/02/02 19:33:28;;;;;;;64.00;35.15;;;;;;;;;;5050775;28;20029;-89
2024/02/02 19:35:54;;;;;;;73.70;38.25;;;;;;;;;;5037995;28;20064;-88
2024/02/02 19:38:23;;;;;;;60.22;29.92;;;;;;;;;;5026945;28;20034;-88
2024/02/02 19:40:49;;;;;;;70.68;33.83;;;;;;;;;;5037184;28;20052;-89
2024/02/02 19:43:15;;;;;;;82.70;38.38;;;;;;;;;;5025448;28;20318;-88
2024/02/02 19:45:41;;;;;;;77.13;36.42;;;;;;;;;;5038735;28;20032;-89
2024/02/02 19:48:08;;;;;;;79.28;38.35;;;;;;;;;;5040610;28;20288;-88
2024/02/02 19:53:37;;;;;;;46.85;22.70;;;;;;;;;;5040019;28;20112;-88
2024/02/02 19:56:03;;;;;;;43.72;21.67;;;;;;;;;;5037979;28;20017;-88
2024/02/02 19:58:29;;;;;;;40.78;19.88;;;;;;;;;;5032167;28;20034;-89
2024/02/02 20:00:55;;;;;;;43.38;21.85;;;;;;;;;;5019221;28;20040;-88
2024/02/02 20:03:21;;;;;;;47.85;24.05;;;;;;;;;;5037121;28;20029;-88
2024/02/02 20:05:48;;;;;;;59.75;25.98;;;;;;;;;;5028711;28;20032;-89
2024/02/02 20:08:14;;;;;;;58.33;26.65;;;;;;;;;;5040251;28;20026;-89
2024/02/02 20:10:40;;;;;;;61.58;26.45;;;;;;;;;;5023520;28;20112;-89
2024/02/02 20:13:06;;;;;;;101.72;44.92;;;;;;;;;;5022796;28;20034;-89
2024/02/02 20:15:32;;;;;;;103.88;46.22;;;;;;;;;;5044752;28;20021;-89
2024/02/02 20:18:03;;;;;;;82.70;38.30;;;;;;;;;;5019757;28;20034;-88
2024/02/02 20:23:27;;;;;;;67.97;31.92;;;;;;;;;;5051752;28;20036;-88
2024/02/02 20:25:53;;;;;;;100.18;46.80;;;;;;;;;;5034695;28;20030;-88
2024/02/02 20:28:19;;;;;;;111.70;51.30;;;;;;;;;;5031586;28;20045;-88
2024/02/02 20:30:45;;;;;;;123.60;54.45;;;;;;;;;;5049206;28;20060;-87
2024/02/02 20:33:14;;;;;;;101.97;42.53;;;;;;;;;;5022799;28;20120;-88
2024/02/02 20:35:41;;;;;;;81.32;31.20;;;;;;;;;;5022764;28;20052;-88
2024/02/02 20:38:07;;;;;;;79.07;28.73;;;;;;;;;;5040169;28;20017;-88
2024/02/02 20:40:33;;;;;;;61.00;23.00;;;;;;;;;;5032698;28;20037;-88
2024/02/02 20:42:59;;;;;;;58.80;25.13;;;;;;;;;;5042061;28;20117;-88
2024/02/02 20:45:25;;;;;;;128.27;49.53;;;;;;;;;;5041374;28;20424;-89
2024/02/02 20:47:52;;;;;;;184.98;69.82;;;;;;;;;;5039975;28;20033;-89
2024/02/02 20:50:18;;;;;;;142.00;56.33;;;;;;;;;;5041080;28;20044;-93
2024/02/02 20:52:45;;;;;;;144.32;55.97;;;;;;;;;;5023917;28;20045;-88
2024/02/02 20:55:13;;;;;;;96.35;39.40;;;;;;;;;;5039897;28;20060;-89
2024/02/02 20:57:42;;;;;;;84.40;33.90;;;;;;;;;;5040061;28;20033;-89
2024/02/02 21:00:12;;;;;;;97.78;35.42;;;;;;;;;;5025896;28;20029;-88
2024/02/02 21:02:42;;;;;;;124.45;44.58;;;;;;;;;;5046416;28;20030;-89
2024/02/02 21:05:09;;;;;;;108.18;37.50;;;;;;;;;;5040007;28;20100;-88
2024/02/02 21:07:56;;;;;;;110.93;38.70;;;;;;;;;;5040319;28;20029;-88
2024/02/02 21:10:23;;;;;;;141.00;45.80;;;;;;;;;;5022276;28;20033;-87
2024/02/02 21:12:49;;;;;;;133.88;47.22;;;;;;;;;;5039672;28;20025;-87
2024/02/02 21:15:16;;;;;;;136.52;45.65;;;;;;;;;;5021641;28;20044;-88
2024/02/02 21:17:46;;;;;;;132.82;46.90;;;;;;;;;;5039354;28;20063;-87
2024/02/02 21:20:13;;;;;;;109.68;43.33;;;;;;;;;;5038494;28;20105;-87
2024/02/02 21:22:39;;;;;;;98.25;41.42;;;;;;;;;;5038496;28;20022;-87
2024/02/02 21:25:05;;;;;;;97.18;41.72;;;;;;;;;;5038360;28;20033;-87
2024/02/02 21:27:32;;;;;;;89.30;35.65;;;;;;;;;;5038922;28;20419;-87
2024/02/02 21:30:00;;;;;;;73.00;31.15;;;;;;;;;;5039265;28;20025;-87
2024/02/02 21:32:26;;;;;;;82.95;34.67;;;;;;;;;;5039045;28;20045;-87
2024/02/02 21:34:52;;;;;;;109.30;42.45;;;;;;;;;;5021592;28;20043;-87
2024/02/02 21:37:18;;;;;;;86.68;36.72;;;;;;;;;;5042817;28;20054;-88
2024/02/02 21:39:44;;;;;;;74.90;30.80;;;;;;;;;;5039281;28;20106;-87
2024/02/02 21:42:10;;;;;;;68.18;29.92;;;;;;;;;;5033029;28;20080;-87
2024/02/02 21:44:36;;;;;;;75.32;30.30;;;;;;;;;;5038181;28;20026;-87
2024/02/02 21:47:03;;;;;;;68.55;29.38;;;;;;;;;;5025993;28;20037;-88
2024/02/02 21:49:29;;;;;;;74.65;30.83;;;;;;;;;;5031833;28;20057;-91
2024/02/02 21:51:58;;;;;;;63.40;26.77;;;;;;;;;;5038916;28;20124;-91
2024/02/02 21:54:24;;;;;;;54.45;25.27;;;;;;;;;;5038790;28;20052;-91
2024/02/02 21:56:50;;;;;;;47.35;22.48;;;;;;;;;;5039085;28;20029;-91
2024/02/02 21:59:16;;;;;;;43.15;20.83;;;;;;;;;;5038895;28;20037;-91
2024/02/02 22:01:43;;;;;;;41.38;19.85;;;;;;;;;;5038521;28;20025;-91
2024/02/02 22:04:11;;;;;;;42.65;19.50;;;;;;;;;;5038587;28;20067;-91
2024/02/02 22:06:37;;;;;;;37.13;17.65;;;;;;;;;;5038978;28;20025;-91
2024/02/02 22:09:03;;;;;;;37.50;17.15;;;;;;;;;;5038439;28;20037;-91
2024/02/02 22:11:30;;;;;;;35.20;16.40;;;;;;;;;;5038868;28;20168;-91
2024/02/02 22:13:56;;;;;;;34.05;16.05;;;;;;;;;;5025387;28;20049;-91